sensor_id;sensor_type;location;lat;lon;timestamp;P1;durP1;ratioP1;P2;durP2;ratioP2
47523;SDS011;33253;42.144;25.884;2024-01-06T00:00:30;12.32;;;7.65;;
47523;SDS011;33253;42.144;25.884;2024-01-06T00:02:55;12.27;;;7.60;;
47523;SDS011;33253;42.144;25.884;2024-01-06T00:05:21;11.20;;;7.07;;
47523;SDS011;33253;42.144;25.884;2024-01-06T00:07:46;11.48;;;6.70;;
47523;SDS011;33253;42.144;25.884;2024-01-06T00:10:12;12.45;;;6.53;;
47523;SDS011;33253;42.144;25.884;2024-01-06T00:12:37;12.98;;;7.22;;
47523;SDS011;33253;42.144;25.884;2024-01-06T00:15:03;13.43;;;7.93;;
47523;SDS011;33253;42.144;25.884;2024-01-06T00:17:29;15.55;;;7.80;;
47523;SDS011;33253;42.144;25.884;2024-01-06T00:19:54;14.82;;;7.85;;
47523;SDS011;33253;42.144;25.884;2024-01-06T00:22:20;13.07;;;8.07;;
47523;SDS011;33253;42.144;25.884;2024-01-06T00:24:46;14.52;;;7.40;;
47523;SDS011;33253;42.144;25.884;2024-01-06T00:27:11;12.68;;;7.72;;
47523;SDS011;33253;42.144;25.884;2024-01-06T00:29:38;13.77;;;8.27;;
47523;SDS011;33253;42.144;25.884;2024-01-06T00:32:04;13.75;;;6.88;;
47523;SDS011;33253;42.144;25.884;2024-01-06T00:34:30;13.82;;;7.43;;
47523;SDS011;33253;42.144;25.884;2024-01-06T00:36:55;15.23;;;7.88;;
47523;SDS011;33253;42.144;25.884;2024-01-06T00:39:21;12.55;;;7.18;;
47523;SDS011;33253;42.144;25.884;2024-01-06T00:41:46;13.23;;;7.75;;
47523;SDS011;33253;42.144;25.884;2024-01-06T00:44:12;14.07;;;7.53;;
47523;SDS011;33253;42.144;25.884;2024-01-06T00:46:38;14.10;;;7.97;;
47523;SDS011;33253;42.144;25.884;2024-01-06T00:49:04;12.05;;;7.53;;
47523;SDS011;33253;42.144;25.884;2024-01-06T00:51:30;13.75;;;7.50;;
47523;SDS011;33253;42.144;25.884;2024-01-06T00:53:55;14.05;;;8.10;;
47523;SDS011;33253;42.144;25.884;2024-01-06T00:56:21;16.58;;;8.90;;
47523;SDS011;33253;42.144;25.884;2024-01-06T00:58:47;14.85;;;7.72;;
47523;SDS011;33253;42.144;25.884;2024-01-06T01:01:12;13.55;;;8.10;;
47523;SDS011;33253;42.144;25.884;2024-01-06T01:03:38;11.00;;;7.25;;
47523;SDS011;33253;42.144;25.884;2024-01-06T01:06:03;13.15;;;7.93;;
47523;SDS011;33253;42.144;25.884;2024-01-06T01:08:29;13.75;;;8.00;;
47523;SDS011;33253;42.144;25.884;2024-01-06T01:10:56;15.23;;;8.18;;
47523;SDS011;33253;42.144;25.884;2024-01-06T01:13:22;13.25;;;8.30;;
47523;SDS011;33253;42.144;25.884;2024-01-06T01:15:48;12.13;;;7.35;;
47523;SDS011;33253;42.144;25.884;2024-01-06T01:18:13;15.65;;;8.07;;
47523;SDS011;33253;42.144;25.884;2024-01-06T01:20:39;16.35;;;8.20;;
47523;SDS011;33253;42.144;25.884;2024-01-06T01:23:08;16.65;;;8.15;;
47523;SDS011;33253;42.144;25.884;2024-01-06T01:25:33;12.48;;;7.72;;
47523;SDS011;33253;42.144;25.884;2024-01-06T01:27:59;11.52;;;7.00;;
47523;SDS011;33253;42.144;25.884;2024-01-06T01:30:25;12.90;;;7.95;;
47523;SDS011;33253;42.144;25.884;2024-01-06T01:32:50;13.13;;;7.53;;
47523;SDS011;33253;42.144;25.884;2024-01-06T01:35:16;11.55;;;6.93;;
47523;SDS011;33253;42.144;25.884;2024-01-06T01:37:41;13.20;;;6.97;;
47523;SDS011;33253;42.144;25.884;2024-01-06T01:40:07;11.80;;;6.57;;
47523;SDS011;33253;42.144;25.884;2024-01-06T01:42:33;11.15;;;7.18;;
47523;SDS011;33253;42.144;25.884;2024-01-06T01:44:59;11.55;;;7.03;;
47523;SDS011;33253;42.144;25.884;2024-01-06T01:47:25;14.85;;;7.45;;
47523;SDS011;33253;42.144;25.884;2024-01-06T01:49:51;13.43;;;7.28;;
47523;SDS011;33253;42.144;25.884;2024-01-06T01:52:19;15.18;;;7.63;;
47523;SDS011;33253;42.144;25.884;2024-01-06T01:54:45;14.07;;;7.38;;
47523;SDS011;33253;42.144;25.884;2024-01-06T01:57:11;13.25;;;6.85;;
47523;SDS011;33253;42.144;25.884;2024-01-06T01:59:39;10.95;;;6.60;;
47523;SDS011;33253;42.144;25.884;2024-01-06T02:02:04;14.00;;;7.35;;
47523;SDS011;33253;42.144;25.884;2024-01-06T02:04:31;11.00;;;6.72;;
47523;SDS011;33253;42.144;25.884;2024-01-06T02:06:57;10.70;;;6.75;;
47523;SDS011;33253;42.144;25.884;2024-01-06T02:09:22;11.00;;;7.03;;
47523;SDS011;33253;42.144;25.884;2024-01-06T02:11:52;14.02;;;7.63;;
47523;SDS011;33253;42.144;25.884;2024-01-06T02:14:17;12.30;;;7.25;;
47523;SDS011;33253;42.144;25.884;2024-01-06T02:16:43;11.18;;;6.88;;
47523;SDS011;33253;42.144;25.884;2024-01-06T02:19:08;12.55;;;6.43;;
47523;SDS011;33253;42.144;25.884;2024-01-06T02:21:39;11.73;;;6.57;;
47523;SDS011;33253;42.144;25.884;2024-01-06T02:26:32;10.50;;;6.30;;
47523;SDS011;33253;42.144;25.884;2024-01-06T02:28:58;10.85;;;6.93;;
47523;SDS011;33253;42.144;25.884;2024-01-06T02:31:24;12.05;;;6.70;;
47523;SDS011;33253;42.144;25.884;2024-01-06T02:33:49;12.48;;;7.00;;
47523;SDS011;33253;42.144;25.884;2024-01-06T02:36:14;11.55;;;6.78;;
47523;SDS011;33253;42.144;25.884;2024-01-06T02:38:40;10.52;;;6.50;;
47523;SDS011;33253;42.144;25.884;2024-01-06T02:41:05;10.05;;;6.47;;
47523;SDS011;33253;42.144;25.884;2024-01-06T02:43:31;11.30;;;6.45;;
47523;SDS011;33253;42.144;25.884;2024-01-06T02:45:56;11.75;;;6.00;;
47523;SDS011;33253;42.144;25.884;2024-01-06T02:48:22;10.65;;;6.20;;
47523;SDS011;33253;42.144;25.884;2024-01-06T02:50:47;9.32;;;5.70;;
47523;SDS011;33253;42.144;25.884;2024-01-06T02:53:13;13.38;;;6.43;;
47523;SDS011;33253;42.144;25.884;2024-01-06T02:55:38;12.90;;;7.00;;
47523;SDS011;33253;42.144;25.884;2024-01-06T02:58:04;11.57;;;6.03;;
47523;SDS011;33253;42.144;25.884;2024-01-06T03:00:30;13.00;;;5.95;;
47523;SDS011;33253;42.144;25.884;2024-01-06T03:02:55;11.90;;;6.07;;
47523;SDS011;33253;42.144;25.884;2024-01-06T03:05:21;9.88;;;5.47;;
47523;SDS011;33253;42.144;25.884;2024-01-06T03:07:46;11.32;;;6.38;;
47523;SDS011;33253;42.144;25.884;2024-01-06T03:10:12;10.20;;;6.00;;
47523;SDS011;33253;42.144;25.884;2024-01-06T03:12:37;11.18;;;5.93;;
47523;SDS011;33253;42.144;25.884;2024-01-06T03:15:03;9.38;;;5.93;;
47523;SDS011;33253;42.144;25.884;2024-01-06T03:17:28;9.43;;;6.03;;
47523;SDS011;33253;42.144;25.884;2024-01-06T03:19:54;12.77;;;7.40;;
47523;SDS011;33253;42.144;25.884;2024-01-06T03:22:19;11.77;;;6.45;;
47523;SDS011;33253;42.144;25.884;2024-01-06T03:24:45;9.93;;;5.63;;
47523;SDS011;33253;42.144;25.884;2024-01-06T03:27:10;8.85;;;5.70;;
47523;SDS011;33253;42.144;25.884;2024-01-06T03:29:37;11.02;;;6.13;;
47523;SDS011;33253;42.144;25.884;2024-01-06T03:32:03;10.95;;;5.78;;
47523;SDS011;33253;42.144;25.884;2024-01-06T03:34:29;10.57;;;5.72;;
47523;SDS011;33253;42.144;25.884;2024-01-06T03:36:54;10.95;;;5.85;;
47523;SDS011;33253;42.144;25.884;2024-01-06T03:39:19;10.65;;;6.13;;
47523;SDS011;33253;42.144;25.884;2024-01-06T03:41:45;11.32;;;6.00;;
47523;SDS011;33253;42.144;25.884;2024-01-06T03:44:10;12.57;;;6.00;;
47523;SDS011;33253;42.144;25.884;2024-01-06T03:46:37;9.93;;;5.75;;
47523;SDS011;33253;42.144;25.884;2024-01-06T03:49:02;10.25;;;6.03;;
47523;SDS011;33253;42.144;25.884;2024-01-06T03:51:28;15.68;;;7.78;;
47523;SDS011;33253;42.144;25.884;2024-01-06T03:53:54;13.82;;;8.65;;
47523;SDS011;33253;42.144;25.884;2024-01-06T03:56:19;12.98;;;8.90;;
47523;SDS011;33253;42.144;25.884;2024-01-06T03:58:45;11.88;;;7.03;;
47523;SDS011;33253;42.144;25.884;2024-01-06T04:01:11;9.50;;;6.22;;
47523;SDS011;33253;42.144;25.884;2024-01-06T04:03:37;12.95;;;6.40;;
47523;SDS011;33253;42.144;25.884;2024-01-06T04:06:05;9.73;;;6.25;;
47523;SDS011;33253;42.144;25.884;2024-01-06T04:08:31;11.50;;;5.93;;
47523;SDS011;33253;42.144;25.884;2024-01-06T04:10:57;11.25;;;6.22;;
47523;SDS011;33253;42.144;25.884;2024-01-06T04:13:22;13.70;;;6.20;;
47523;SDS011;33253;42.144;25.884;2024-01-06T04:15:50;12.98;;;6.05;;
47523;SDS011;33253;42.144;25.884;2024-01-06T04:18:15;9.88;;;6.07;;
47523;SDS011;33253;42.144;25.884;2024-01-06T04:20:41;10.43;;;5.82;;
47523;SDS011;33253;42.144;25.884;2024-01-06T04:23:07;10.18;;;6.07;;
47523;SDS011;33253;42.144;25.884;2024-01-06T04:25:32;10.07;;;6.07;;
47523;SDS011;33253;42.144;25.884;2024-01-06T04:27:58;12.05;;;6.85;;
47523;SDS011;33253;42.144;25.884;2024-01-06T04:30:23;11.88;;;6.03;;
47523;SDS011;33253;42.144;25.884;2024-01-06T04:32:50;11.40;;;6.50;;
47523;SDS011;33253;42.144;25.884;2024-01-06T04:35:15;15.18;;;7.32;;
47523;SDS011;33253;42.144;25.884;2024-01-06T04:37:41;13.98;;;6.82;;
47523;SDS011;33253;42.144;25.884;2024-01-06T04:40:07;11.57;;;6.50;;
47523;SDS011;33253;42.144;25.884;2024-01-06T04:42:33;11.70;;;7.05;;
47523;SDS011;33253;42.144;25.884;2024-01-06T04:44:58;11.73;;;6.82;;
47523;SDS011;33253;42.144;25.884;2024-01-06T04:47:24;11.73;;;7.00;;
47523;SDS011;33253;42.144;25.884;2024-01-06T04:49:50;12.73;;;6.72;;
47523;SDS011;33253;42.144;25.884;2024-01-06T04:52:15;12.60;;;6.57;;
47523;SDS011;33253;42.144;25.884;2024-01-06T04:54:41;12.52;;;6.38;;
47523;SDS011;33253;42.144;25.884;2024-01-06T04:57:06;13.57;;;7.78;;
47523;SDS011;33253;42.144;25.884;2024-01-06T04:59:32;14.45;;;7.45;;
47523;SDS011;33253;42.144;25.884;2024-01-06T05:01:57;14.13;;;7.82;;
47523;SDS011;33253;42.144;25.884;2024-01-06T05:04:24;16.63;;;9.15;;
47523;SDS011;33253;42.144;25.884;2024-01-06T05:06:50;17.75;;;9.25;;
47523;SDS011;33253;42.144;25.884;2024-01-06T05:09:16;19.00;;;9.68;;
47523;SDS011;33253;42.144;25.884;2024-01-06T05:11:45;19.67;;;9.52;;
47523;SDS011;33253;42.144;25.884;2024-01-06T05:14:11;13.88;;;7.95;;
47523;SDS011;33253;42.144;25.884;2024-01-06T05:16:36;15.98;;;8.55;;
47523;SDS011;33253;42.144;25.884;2024-01-06T05:19:02;13.93;;;8.30;;
47523;SDS011;33253;42.144;25.884;2024-01-06T05:21:28;19.13;;;8.85;;
47523;SDS011;33253;42.144;25.884;2024-01-06T05:23:54;18.02;;;8.50;;
47523;SDS011;33253;42.144;25.884;2024-01-06T05:26:19;21.00;;;8.32;;
47523;SDS011;33253;42.144;25.884;2024-01-06T05:28:45;13.93;;;6.70;;
47523;SDS011;33253;42.144;25.884;2024-01-06T05:31:10;13.45;;;6.50;;
47523;SDS011;33253;42.144;25.884;2024-01-06T05:33:36;13.55;;;6.28;;
47523;SDS011;33253;42.144;25.884;2024-01-06T05:36:01;13.25;;;6.03;;
47523;SDS011;33253;42.144;25.884;2024-01-06T05:38:27;10.27;;;5.85;;
47523;SDS011;33253;42.144;25.884;2024-01-06T05:40:52;10.57;;;6.07;;
47523;SDS011;33253;42.144;25.884;2024-01-06T05:43:18;10.05;;;6.85;;
47523;SDS011;33253;42.144;25.884;2024-01-06T05:45:43;11.90;;;6.80;;
47523;SDS011;33253;42.144;25.884;2024-01-06T05:48:10;12.95;;;7.03;;
47523;SDS011;33253;42.144;25.884;2024-01-06T05:50:38;11.88;;;7.43;;
47523;SDS011;33253;42.144;25.884;2024-01-06T05:53:06;12.55;;;6.30;;
47523;SDS011;33253;42.144;25.884;2024-01-06T05:55:32;14.02;;;6.65;;
47523;SDS011;33253;42.144;25.884;2024-01-06T05:57:58;11.68;;;6.70;;
47523;SDS011;33253;42.144;25.884;2024-01-06T06:00:24;12.90;;;6.18;;
47523;SDS011;33253;42.144;25.884;2024-01-06T06:02:49;15.35;;;7.10;;
47523;SDS011;33253;42.144;25.884;2024-01-06T06:05:15;15.63;;;7.38;;
47523;SDS011;33253;42.144;25.884;2024-01-06T06:07:40;16.25;;;8.85;;
47523;SDS011;33253;42.144;25.884;2024-01-06T06:10:08;21.23;;;8.88;;
47523;SDS011;33253;42.144;25.884;2024-01-06T06:12:37;17.30;;;7.78;;
47523;SDS011;33253;42.144;25.884;2024-01-06T06:15:04;17.65;;;7.25;;
47523;SDS011;33253;42.144;25.884;2024-01-06T06:17:31;16.30;;;7.80;;
47523;SDS011;33253;42.144;25.884;2024-01-06T06:19:57;18.33;;;7.50;;
47523;SDS011;33253;42.144;25.884;2024-01-06T06:22:23;15.07;;;7.47;;
47523;SDS011;33253;42.144;25.884;2024-01-06T06:24:51;14.73;;;6.93;;
47523;SDS011;33253;42.144;25.884;2024-01-06T06:27:16;15.38;;;7.65;;
47523;SDS011;33253;42.144;25.884;2024-01-06T06:29:42;13.75;;;7.03;;
47523;SDS011;33253;42.144;25.884;2024-01-06T06:32:07;13.52;;;7.53;;
47523;SDS011;33253;42.144;25.884;2024-01-06T06:34:33;11.88;;;7.00;;
47523;SDS011;33253;42.144;25.884;2024-01-06T06:36:58;21.27;;;11.07;;
47523;SDS011;33253;42.144;25.884;2024-01-06T06:39:24;20.33;;;13.65;;
47523;SDS011;33253;42.144;25.884;2024-01-06T06:41:49;21.10;;;11.52;;
47523;SDS011;33253;42.144;25.884;2024-01-06T06:44:15;20.92;;;10.38;;
47523;SDS011;33253;42.144;25.884;2024-01-06T06:46:40;13.63;;;9.05;;
47523;SDS011;33253;42.144;25.884;2024-01-06T06:49:06;16.08;;;9.43;;
47523;SDS011;33253;42.144;25.884;2024-01-06T06:51:31;18.23;;;9.77;;
47523;SDS011;33253;42.144;25.884;2024-01-06T06:53:57;21.05;;;10.50;;
47523;SDS011;33253;42.144;25.884;2024-01-06T06:56:23;15.95;;;8.88;;
47523;SDS011;33253;42.144;25.884;2024-01-06T06:58:49;17.05;;;9.35;;
47523;SDS011;33253;42.144;25.884;2024-01-06T07:01:14;16.55;;;8.80;;
47523;SDS011;33253;42.144;25.884;2024-01-06T07:03:40;15.70;;;8.27;;
47523;SDS011;33253;42.144;25.884;2024-01-06T07:06:06;20.83;;;9.63;;
47523;SDS011;33253;42.144;25.884;2024-01-06T07:08:32;44.67;;;16.15;;
47523;SDS011;33253;42.144;25.884;2024-01-06T07:10:57;27.17;;;13.55;;
47523;SDS011;33253;42.144;25.884;2024-01-06T07:13:23;37.53;;;14.40;;
47523;SDS011;33253;42.144;25.884;2024-01-06T07:15:48;37.55;;;27.95;;
47523;SDS011;33253;42.144;25.884;2024-01-06T07:18:14;49.10;;;27.60;;
47523;SDS011;33253;42.144;25.884;2024-01-06T07:20:40;31.83;;;12.75;;
47523;SDS011;33253;42.144;25.884;2024-01-06T07:23:05;32.35;;;12.07;;
47523;SDS011;33253;42.144;25.884;2024-01-06T07:25:31;42.28;;;13.23;;
47523;SDS011;33253;42.144;25.884;2024-01-06T07:27:57;24.13;;;12.10;;
47523;SDS011;33253;42.144;25.884;2024-01-06T07:30:23;27.52;;;13.50;;
47523;SDS011;33253;42.144;25.884;2024-01-06T07:32:49;33.72;;;12.57;;
47523;SDS011;33253;42.144;25.884;2024-01-06T07:35:16;25.75;;;12.05;;
47523;SDS011;33253;42.144;25.884;2024-01-06T07:37:41;31.98;;;14.70;;
47523;SDS011;33253;42.144;25.884;2024-01-06T07:40:07;28.42;;;16.63;;
47523;SDS011;33253;42.144;25.884;2024-01-06T07:42:33;27.23;;;15.77;;
47523;SDS011;33253;42.144;25.884;2024-01-06T07:44:58;24.23;;;15.75;;
47523;SDS011;33253;42.144;25.884;2024-01-06T07:47:24;22.80;;;12.80;;
47523;SDS011;33253;42.144;25.884;2024-01-06T07:49:50;23.08;;;13.30;;
47523;SDS011;33253;42.144;25.884;2024-01-06T07:52:16;16.65;;;11.13;;
47523;SDS011;33253;42.144;25.884;2024-01-06T07:55:01;19.95;;;10.55;;
47523;SDS011;33253;42.144;25.884;2024-01-06T07:57:26;13.35;;;8.73;;
47523;SDS011;33253;42.144;25.884;2024-01-06T07:59:53;13.20;;;8.10;;
47523;SDS011;33253;42.144;25.884;2024-01-06T08:02:18;12.90;;;7.85;;
47523;SDS011;33253;42.144;25.884;2024-01-06T08:04:43;15.52;;;8.60;;
47523;SDS011;33253;42.144;25.884;2024-01-06T08:07:09;15.20;;;9.18;;
47523;SDS011;33253;42.144;25.884;2024-01-06T08:09:35;17.83;;;9.40;;
47523;SDS011;33253;42.144;25.884;2024-01-06T08:12:01;15.32;;;10.07;;
47523;SDS011;33253;42.144;25.884;2024-01-06T08:14:28;17.35;;;9.40;;
47523;SDS011;33253;42.144;25.884;2024-01-06T08:16:53;16.65;;;10.07;;
47523;SDS011;33253;42.144;25.884;2024-01-06T08:19:19;16.23;;;11.43;;
47523;SDS011;33253;42.144;25.884;2024-01-06T08:21:45;28.63;;;16.08;;
47523;SDS011;33253;42.144;25.884;2024-01-06T08:24:10;35.35;;;23.33;;
47523;SDS011;33253;42.144;25.884;2024-01-06T08:26:36;20.15;;;13.13;;
47523;SDS011;33253;42.144;25.884;2024-01-06T08:29:01;22.85;;;11.45;;
47523;SDS011;33253;42.144;25.884;2024-01-06T08:31:27;16.40;;;10.52;;
47523;SDS011;33253;42.144;25.884;2024-01-06T08:33:52;19.00;;;11.18;;
47523;SDS011;33253;42.144;25.884;2024-01-06T08:36:18;17.10;;;10.88;;
47523;SDS011;33253;42.144;25.884;2024-01-06T08:38:43;16.58;;;10.35;;
47523;SDS011;33253;42.144;25.884;2024-01-06T08:41:09;16.38;;;10.25;;
47523;SDS011;33253;42.144;25.884;2024-01-06T08:43:34;18.20;;;10.68;;
47523;SDS011;33253;42.144;25.884;2024-01-06T08:46:00;16.13;;;10.75;;
47523;SDS011;33253;42.144;25.884;2024-01-06T08:48:25;15.32;;;10.27;;
47523;SDS011;33253;42.144;25.884;2024-01-06T08:50:51;19.02;;;11.55;;
47523;SDS011;33253;42.144;25.884;2024-01-06T08:53:16;19.88;;;10.82;;
47523;SDS011;33253;42.144;25.884;2024-01-06T08:55:42;18.73;;;10.48;;
47523;SDS011;33253;42.144;25.884;2024-01-06T08:58:08;17.00;;;10.00;;
47523;SDS011;33253;42.144;25.884;2024-01-06T09:00:34;17.40;;;11.75;;
47523;SDS011;33253;42.144;25.884;2024-01-06T09:03:00;36.20;;;23.48;;
47523;SDS011;33253;42.144;25.884;2024-01-06T09:05:26;21.55;;;11.98;;
47523;SDS011;33253;42.144;25.884;2024-01-06T09:07:51;13.98;;;11.07;;
47523;SDS011;33253;42.144;25.884;2024-01-06T09:10:17;17.85;;;10.07;;
47523;SDS011;33253;42.144;25.884;2024-01-06T09:12:43;17.55;;;10.98;;
47523;SDS011;33253;42.144;25.884;2024-01-06T09:15:09;13.98;;;9.82;;
47523;SDS011;33253;42.144;25.884;2024-01-06T09:17:34;13.95;;;9.90;;
47523;SDS011;33253;42.144;25.884;2024-01-06T09:20:00;20.92;;;12.10;;
47523;SDS011;33253;42.144;25.884;2024-01-06T09:22:26;19.95;;;11.85;;
47523;SDS011;33253;42.144;25.884;2024-01-06T09:24:52;18.25;;;11.30;;
47523;SDS011;33253;42.144;25.884;2024-01-06T09:27:18;21.13;;;13.50;;
47523;SDS011;33253;42.144;25.884;2024-01-06T09:29:44;21.17;;;11.48;;
47523;SDS011;33253;42.144;25.884;2024-01-06T09:32:10;19.77;;;10.45;;
47523;SDS011;33253;42.144;25.884;2024-01-06T09:34:35;15.90;;;9.70;;
47523;SDS011;33253;42.144;25.884;2024-01-06T09:37:02;15.00;;;10.38;;
47523;SDS011;33253;42.144;25.884;2024-01-06T09:39:27;19.10;;;12.48;;
47523;SDS011;33253;42.144;25.884;2024-01-06T09:41:53;20.35;;;13.15;;
47523;SDS011;33253;42.144;25.884;2024-01-06T09:44:18;18.70;;;10.60;;
47523;SDS011;33253;42.144;25.884;2024-01-06T09:46:44;21.38;;;11.65;;
47523;SDS011;33253;42.144;25.884;2024-01-06T09:49:10;24.52;;;14.57;;
47523;SDS011;33253;42.144;25.884;2024-01-06T09:51:39;17.77;;;11.82;;
47523;SDS011;33253;42.144;25.884;2024-01-06T09:54:08;16.23;;;10.77;;
47523;SDS011;33253;42.144;25.884;2024-01-06T09:56:35;17.70;;;11.50;;
47523;SDS011;33253;42.144;25.884;2024-01-06T09:59:01;24.17;;;10.77;;
47523;SDS011;33253;42.144;25.884;2024-01-06T10:01:27;20.10;;;10.90;;
47523;SDS011;33253;42.144;25.884;2024-01-06T10:03:52;19.35;;;10.38;;
47523;SDS011;33253;42.144;25.884;2024-01-06T10:06:19;16.00;;;10.18;;
47523;SDS011;33253;42.144;25.884;2024-01-06T10:08:48;17.80;;;10.80;;
47523;SDS011;33253;42.144;25.884;2024-01-06T10:11:15;24.58;;;9.95;;
47523;SDS011;33253;42.144;25.884;2024-01-06T10:13:40;21.92;;;10.55;;
47523;SDS011;33253;42.144;25.884;2024-01-06T10:16:06;21.48;;;11.02;;
47523;SDS011;33253;42.144;25.884;2024-01-06T10:18:32;21.08;;;11.23;;
47523;SDS011;33253;42.144;25.884;2024-01-06T10:21:02;22.85;;;11.75;;
47523;SDS011;33253;42.144;25.884;2024-01-06T10:23:29;24.75;;;10.75;;
47523;SDS011;33253;42.144;25.884;2024-01-06T10:25:57;21.95;;;10.57;;
47523;SDS011;33253;42.144;25.884;2024-01-06T10:28:22;18.25;;;10.50;;
47523;SDS011;33253;42.144;25.884;2024-01-06T10:30:52;22.33;;;10.85;;
47523;SDS011;33253;42.144;25.884;2024-01-06T10:33:21;21.90;;;12.43;;
47523;SDS011;33253;42.144;25.884;2024-01-06T10:35:48;20.33;;;10.48;;
47523;SDS011;33253;42.144;25.884;2024-01-06T10:38:14;31.60;;;18.23;;
47523;SDS011;33253;42.144;25.884;2024-01-06T10:43:35;19.50;;;10.35;;
47523;SDS011;33253;42.144;25.884;2024-01-06T10:46:03;18.67;;;10.73;;
47523;SDS011;33253;42.144;25.884;2024-01-06T10:48:32;23.40;;;11.52;;
47523;SDS011;33253;42.144;25.884;2024-01-06T10:51:00;25.45;;;16.20;;
47523;SDS011;33253;42.144;25.884;2024-01-06T10:53:32;20.35;;;10.55;;
47523;SDS011;33253;42.144;25.884;2024-01-06T10:55:58;24.00;;;16.17;;
47523;SDS011;33253;42.144;25.884;2024-01-06T10:58:27;17.63;;;11.15;;
47523;SDS011;33253;42.144;25.884;2024-01-06T11:00:55;17.52;;;9.90;;
47523;SDS011;33253;42.144;25.884;2024-01-06T11:03:22;22.85;;;9.40;;
47523;SDS011;33253;42.144;25.884;2024-01-06T11:06:09;31.63;;;13.38;;
47523;SDS011;33253;42.144;25.884;2024-01-06T11:08:40;29.48;;;15.88;;
47523;SDS011;33253;42.144;25.884;2024-01-06T11:11:17;24.83;;;17.08;;
47523;SDS011;33253;42.144;25.884;2024-01-06T11:13:44;26.40;;;11.27;;
47523;SDS011;33253;42.144;25.884;2024-01-06T11:16:11;20.08;;;9.60;;
47523;SDS011;33253;42.144;25.884;2024-01-06T11:18:57;25.92;;;10.57;;
47523;SDS011;33253;42.144;25.884;2024-01-06T11:21:22;15.75;;;9.50;;
47523;SDS011;33253;42.144;25.884;2024-01-06T11:26:50;19.52;;;10.63;;
47523;SDS011;33253;42.144;25.884;2024-01-06T11:29:18;26.45;;;12.02;;
47523;SDS011;33253;42.144;25.884;2024-01-06T11:32:15;23.10;;;12.20;;
47523;SDS011;33253;42.144;25.884;2024-01-06T11:34:52;17.08;;;11.25;;
47523;SDS011;33253;42.144;25.884;2024-01-06T11:37:20;21.20;;;10.73;;
47523;SDS011;33253;42.144;25.884;2024-01-06T11:42:15;22.42;;;11.07;;
47523;SDS011;33253;42.144;25.884;2024-01-06T11:44:43;20.65;;;10.45;;
47523;SDS011;33253;42.144;25.884;2024-01-06T11:47:10;31.40;;;17.13;;
47523;SDS011;33253;42.144;25.884;2024-01-06T11:49:37;23.77;;;13.00;;
47523;SDS011;33253;42.144;25.884;2024-01-06T11:52:02;23.90;;;12.13;;
47523;SDS011;33253;42.144;25.884;2024-01-06T11:54:28;27.48;;;14.15;;
47523;SDS011;33253;42.144;25.884;2024-01-06T11:56:54;29.25;;;13.88;;
47523;SDS011;33253;42.144;25.884;2024-01-06T11:59:21;34.13;;;16.50;;
47523;SDS011;33253;42.144;25.884;2024-01-06T12:01:46;29.98;;;16.33;;
47523;SDS011;33253;42.144;25.884;2024-01-06T12:04:15;32.25;;;18.77;;
47523;SDS011;33253;42.144;25.884;2024-01-06T12:06:41;26.85;;;15.45;;
47523;SDS011;33253;42.144;25.884;2024-01-06T12:09:11;25.67;;;14.60;;
47523;SDS011;33253;42.144;25.884;2024-01-06T12:11:41;22.80;;;12.85;;
47523;SDS011;33253;42.144;25.884;2024-01-06T12:14:09;25.73;;;10.23;;
47523;SDS011;33253;42.144;25.884;2024-01-06T12:16:34;29.15;;;16.33;;
47523;SDS011;33253;42.144;25.884;2024-01-06T12:19:01;19.23;;;9.35;;
47523;SDS011;33253;42.144;25.884;2024-01-06T12:21:28;21.92;;;8.50;;
47523;SDS011;33253;42.144;25.884;2024-01-06T12:24:11;15.27;;;8.38;;
47523;SDS011;33253;42.144;25.884;2024-01-06T12:26:37;22.67;;;8.65;;
47523;SDS011;33253;42.144;25.884;2024-01-06T12:29:06;19.52;;;8.85;;
47523;SDS011;33253;42.144;25.884;2024-01-06T12:31:34;19.70;;;10.23;;
47523;SDS011;33253;42.144;25.884;2024-01-06T12:33:59;20.58;;;9.35;;
47523;SDS011;33253;42.144;25.884;2024-01-06T12:36:25;16.70;;;9.77;;
47523;SDS011;33253;42.144;25.884;2024-01-06T12:38:50;25.88;;;11.80;;
47523;SDS011;33253;42.144;25.884;2024-01-06T12:41:16;23.75;;;11.15;;
47523;SDS011;33253;42.144;25.884;2024-01-06T12:43:41;22.88;;;11.60;;
47523;SDS011;33253;42.144;25.884;2024-01-06T12:46:07;63.22;;;35.72;;
47523;SDS011;33253;42.144;25.884;2024-01-06T12:48:32;35.13;;;16.17;;
47523;SDS011;33253;42.144;25.884;2024-01-06T12:50:58;32.40;;;12.60;;
47523;SDS011;33253;42.144;25.884;2024-01-06T12:53:23;37.35;;;11.93;;
47523;SDS011;33253;42.144;25.884;2024-01-06T12:55:49;27.63;;;10.88;;
47523;SDS011;33253;42.144;25.884;2024-01-06T12:58:14;27.35;;;13.70;;
47523;SDS011;33253;42.144;25.884;2024-01-06T13:00:40;34.35;;;15.48;;
47523;SDS011;33253;42.144;25.884;2024-01-06T13:03:05;22.92;;;14.63;;
47523;SDS011;33253;42.144;25.884;2024-01-06T13:05:32;32.40;;;16.10;;
47523;SDS011;33253;42.144;25.884;2024-01-06T13:07:57;26.48;;;14.55;;
47523;SDS011;33253;42.144;25.884;2024-01-06T13:10:23;33.35;;;15.50;;
47523;SDS011;33253;42.144;25.884;2024-01-06T13:12:49;31.33;;;17.15;;
47523;SDS011;33253;42.144;25.884;2024-01-06T13:15:15;32.63;;;18.45;;
47523;SDS011;33253;42.144;25.884;2024-01-06T13:17:41;48.45;;;24.02;;
47523;SDS011;33253;42.144;25.884;2024-01-06T13:20:07;36.65;;;20.08;;
47523;SDS011;33253;42.144;25.884;2024-01-06T13:22:33;45.00;;;25.83;;
47523;SDS011;33253;42.144;25.884;2024-01-06T13:24:59;73.43;;;39.10;;
47523;SDS011;33253;42.144;25.884;2024-01-06T13:27:25;61.00;;;35.90;;
47523;SDS011;33253;42.144;25.884;2024-01-06T13:29:54;55.30;;;32.35;;
47523;SDS011;33253;42.144;25.884;2024-01-06T13:32:19;43.70;;;25.83;;
47523;SDS011;33253;42.144;25.884;2024-01-06T13:34:47;39.97;;;25.30;;
47523;SDS011;33253;42.144;25.884;2024-01-06T13:37:12;32.35;;;20.00;;
47523;SDS011;33253;42.144;25.884;2024-01-06T13:39:38;35.13;;;22.55;;
47523;SDS011;33253;42.144;25.884;2024-01-06T13:42:04;35.45;;;22.73;;
47523;SDS011;33253;42.144;25.884;2024-01-06T13:44:30;101.40;;;67.05;;
47523;SDS011;33253;42.144;25.884;2024-01-06T13:46:55;101.63;;;65.45;;
47523;SDS011;33253;42.144;25.884;2024-01-06T13:49:21;50.22;;;31.80;;
47523;SDS011;33253;42.144;25.884;2024-01-06T13:51:48;57.72;;;35.97;;
47523;SDS011;33253;42.144;25.884;2024-01-06T13:54:15;52.72;;;35.72;;
47523;SDS011;33253;42.144;25.884;2024-01-06T13:56:40;50.15;;;33.85;;
47523;SDS011;33253;42.144;25.884;2024-01-06T13:59:06;48.97;;;30.67;;
47523;SDS011;33253;42.144;25.884;2024-01-06T14:01:31;36.97;;;21.98;;
47523;SDS011;33253;42.144;25.884;2024-01-06T14:03:57;29.75;;;15.77;;
47523;SDS011;33253;42.144;25.884;2024-01-06T14:06:27;23.35;;;12.52;;
47523;SDS011;33253;42.144;25.884;2024-01-06T14:08:58;20.35;;;9.63;;
47523;SDS011;33253;42.144;25.884;2024-01-06T14:11:25;27.42;;;15.63;;
47523;SDS011;33253;42.144;25.884;2024-01-06T14:13:56;22.20;;;12.10;;
47523;SDS011;33253;42.144;25.884;2024-01-06T14:16:23;20.95;;;14.40;;
47523;SDS011;33253;42.144;25.884;2024-01-06T14:18:48;16.42;;;10.82;;
47523;SDS011;33253;42.144;25.884;2024-01-06T14:21:14;25.40;;;13.57;;